createdAt,value
2022-10-01T00:00:05.083Z,70.05
2022-10-01T00:02:38.179Z,69.36
2022-10-01T00:05:07.455Z,69.07
2022-10-01T00:07:39.159Z,69.11
2022-10-01T00:10:06.686Z,69.35
2022-10-01T00:12:34.230Z,69.45
2022-10-01T00:15:05.518Z,69.75
2022-10-01T00:17:33.823Z,69.34
2022-10-01T00:20:00.492Z,69.26
2022-10-01T00:22:26.981Z,69.28
2022-10-01T00:24:53.487Z,68.88
2022-10-01T00:27:20.150Z,68.77
2022-10-01T00:29:46.651Z,68.77
2022-10-01T00:32:13.179Z,69.24
2022-10-01T00:34:39.672Z,69.42
2022-10-01T00:37:06.179Z,70.54
2022-10-01T00:39:32.677Z,70.57
2022-10-01T00:41:59.164Z,70.43
2022-10-01T00:44:35.748Z,70.78
2022-10-01T00:47:31.711Z,70.52
2022-10-01T00:50:07.026Z,70.21
2022-10-01T00:52:35.121Z,70.37
2022-10-01T00:55:04.274Z,70.37
2022-10-01T00:57:31.438Z,69.78
2022-10-01T00:59:59.961Z,69.02
2022-10-01T01:02:26.649Z,69.61
2022-10-01T01:04:53.536Z,69.50
2022-10-01T01:07:20.505Z,68.95
2022-10-01T01:09:47.927Z,68.86
2022-10-01T01:12:36.404Z,68.73
2022-10-01T01:15:17.525Z,68.66
2022-10-01T01:17:50.076Z,68.69
2022-10-01T01:20:50.233Z,68.66
2022-10-01T01:23:16.663Z,69.47
2022-10-01T01:25:56.437Z,70.03
2022-10-01T01:28:34.431Z,70.34
2022-10-01T01:31:04.829Z,70.41
2022-10-01T01:33:34.321Z,70.45
2022-10-01T01:36:08.398Z,70.85
2022-10-01T01:38:38.615Z,70.63
2022-10-01T01:41:06.320Z,71.06
2022-10-01T01:43:38.511Z,71.46
2022-10-01T01:46:06.287Z,71.20
2022-10-01T01:48:36.505Z,71.68
2022-10-01T01:51:10.619Z,70.55
2022-10-01T01:53:38.037Z,70.30
2022-10-01T01:56:06.038Z,70.57
2022-10-01T01:58:32.836Z,70.41
2022-10-01T02:00:59.361Z,70.60
2022-10-01T02:03:26.924Z,71.35
2022-10-01T02:06:21.231Z,70.89
2022-10-01T02:09:18.418Z,70.64
2022-10-01T02:11:55.534Z,70.30
2022-10-01T02:14:55.021Z,70.26
2022-10-01T02:17:29.533Z,69.29
2022-10-01T02:20:03.284Z,69.99
2022-10-01T02:22:43.659Z,69.80
2022-10-01T02:25:11.343Z,68.79
2022-10-01T02:27:53.543Z,68.69
2022-10-01T02:30:20.184Z,68.50
2022-10-01T02:32:47.649Z,68.55
2022-10-01T02:35:17.174Z,68.31
2022-10-01T02:37:45.113Z,68.29
2022-10-01T02:40:15.925Z,68.28
2022-10-01T02:42:46.368Z,68.31
2022-10-01T02:45:13.982Z,67.92
2022-10-01T02:47:43.583Z,68.13
2022-10-01T02:50:10.190Z,68.32
2022-10-01T02:52:42.724Z,68.63
2022-10-01T02:55:13.664Z,69.18
2022-10-01T02:57:40.262Z,69.71
2022-10-01T03:00:16.022Z,69.48
2022-10-01T03:02:42.600Z,68.23
2022-10-01T03:05:09.382Z,68.90
2022-10-01T03:07:36.418Z,69.63
2022-10-01T03:10:04.755Z,69.08
2022-10-01T03:12:31.379Z,69.10
2022-10-01T03:14:57.884Z,68.30
2022-10-01T03:17:24.588Z,68.33
2022-10-01T03:19:51.240Z,67.88
2022-10-01T03:22:19.950Z,68.16
2022-10-01T03:24:46.868Z,68.62
2022-10-01T03:27:13.356Z,68.57
2022-10-01T03:29:39.888Z,68.33
2022-10-01T03:32:06.694Z,68.22
2022-10-01T03:34:33.197Z,67.58
2022-10-01T03:36:59.700Z,67.47
2022-10-01T03:39:26.183Z,68.02
2022-10-01T03:41:52.652Z,67.20
2022-10-01T03:44:19.162Z,66.71
2022-10-01T03:46:45.715Z,67.08
2022-10-01T03:49:12.219Z,67.55
2022-10-01T03:51:38.798Z,67.70
2022-10-01T03:54:06.652Z,66.92
2022-10-01T03:56:33.939Z,66.70
2022-10-01T03:59:00.534Z,66.62
2022-10-01T04:01:27.376Z,66.60
2022-10-01T04:03:53.906Z,66.19
2022-10-01T04:06:20.410Z,66.93
2022-10-01T04:08:46.936Z,65.68
2022-10-01T04:11:13.566Z,66.07
2022-10-01T04:13:40.079Z,66.38
2022-10-01T04:16:07.168Z,65.73
2022-10-01T04:18:34.174Z,65.90
2022-10-01T04:21:00.866Z,66.32
2022-10-01T04:23:27.558Z,66.55
2022-10-01T04:25:54.042Z,65.88
2022-10-01T04:28:20.665Z,66.73
2022-10-01T04:30:47.325Z,65.71
2022-10-01T04:33:17.041Z,65.97
2022-10-01T04:35:43.993Z,66.44
2022-10-01T04:38:16.448Z,66.16
2022-10-01T04:40:43.187Z,66.54
2022-10-01T04:43:11.203Z,65.83
2022-10-01T04:45:37.919Z,65.85
2022-10-01T04:48:05.159Z,65.85
2022-10-01T04:50:31.947Z,65.54
2022-10-01T04:52:58.489Z,66.54
2022-10-01T04:55:25.101Z,66.34
2022-10-01T04:57:51.658Z,66.14
2022-10-01T05:00:26.912Z,66.39
2022-10-01T05:02:54.047Z,66.15
2022-10-01T05:05:22.427Z,65.51
2022-10-01T05:07:49.683Z,65.47
2022-10-01T05:10:21.046Z,65.15
2022-10-01T05:12:48.564Z,65.24
2022-10-01T05:15:16.101Z,65.46
2022-10-01T05:17:43.084Z,65.55
2022-10-01T05:20:16.475Z,65.51
2022-10-01T05:22:44.547Z,65.46
2022-10-01T05:25:10.944Z,64.73
2022-10-01T05:27:37.766Z,64.27
2022-10-01T05:30:05.392Z,63.74
2022-10-01T05:32:32.096Z,63.41
2022-10-01T05:34:58.558Z,63.70
2022-10-01T05:37:25.075Z,64.02
2022-10-01T05:39:51.562Z,63.85
2022-10-01T05:42:18.045Z,63.17
2022-10-01T05:44:47.145Z,63.51
2022-10-01T05:47:14.093Z,62.78
2022-10-01T05:49:44.675Z,63.67
2022-10-01T05:52:11.983Z,63.28
2022-10-01T05:54:38.606Z,63.79
2022-10-01T05:57:05.849Z,62.61
2022-10-01T05:59:32.370Z,63.22
2022-10-01T06:01:59.037Z,62.90
2022-10-01T06:04:25.960Z,62.75
2022-10-01T06:06:56.334Z,63.68
2022-10-01T06:09:22.880Z,64.18
2022-10-01T06:11:49.829Z,63.23
2022-10-01T06:14:16.814Z,64.25
2022-10-01T06:16:43.582Z,65.32
2022-10-01T06:19:10.301Z,65.83
2022-10-01T06:21:37.400Z,66.33
2022-10-01T06:24:04.301Z,67.92
2022-10-01T06:26:31.176Z,67.45
2022-10-01T06:28:57.701Z,67.68
2022-10-01T06:31:24.354Z,68.35
2022-10-01T06:33:50.872Z,68.25
2022-10-01T06:36:17.474Z,68.91
2022-10-01T06:38:44.107Z,68.62
2022-10-01T06:41:10.961Z,69.20
2022-10-01T06:43:37.499Z,69.85
2022-10-01T06:46:05.273Z,70.14
2022-10-01T06:48:32.613Z,69.69
2022-10-01T06:50:59.453Z,69.32
2022-10-01T06:53:28.134Z,69.19
2022-10-01T06:55:54.959Z,68.79
2022-10-01T06:58:26.150Z,69.37
2022-10-01T07:00:58.302Z,68.60
2022-10-01T07:03:24.875Z,68.75
2022-10-01T07:05:51.438Z,68.94
2022-10-01T07:08:18.507Z,70.38
2022-10-01T07:10:45.528Z,69.91
2022-10-01T07:13:15.019Z,70.71
2022-10-01T07:15:41.521Z,71.55
2022-10-01T07:18:11.447Z,70.95
2022-10-01T07:20:41.850Z,71.81
2022-10-01T07:23:14.740Z,71.91
2022-10-01T07:25:42.104Z,71.20
2022-10-01T07:28:16.287Z,72.08
2022-10-01T07:30:47.428Z,72.50
2022-10-01T07:33:22.969Z,72.01
2022-10-01T07:35:49.500Z,72.58
2022-10-01T07:38:16.616Z,72.52
2022-10-01T07:40:43.233Z,73.25
2022-10-01T07:43:09.843Z,72.89
2022-10-01T07:45:36.487Z,73.71
2022-10-01T07:48:04.334Z,73.36
2022-10-01T07:50:30.896Z,73.29
2022-10-01T07:52:58.724Z,73.61
2022-10-01T07:55:26.887Z,73.83
2022-10-01T07:57:55.077Z,73.66
2022-10-01T08:00:23.063Z,73.33
2022-10-01T08:02:50.688Z,73.02
2022-10-01T08:05:19.041Z,72.43
2022-10-01T08:07:46.618Z,72.53
2022-10-01T08:10:13.794Z,73.31
2022-10-01T08:12:42.659Z,72.99
2022-10-01T08:15:10.901Z,73.69
2022-10-01T08:17:40.502Z,74.24
2022-10-01T08:20:08.731Z,73.71
2022-10-01T08:22:39.773Z,72.84
2022-10-01T08:25:08.659Z,73.09
2022-10-01T08:27:35.738Z,72.58
2022-10-01T08:30:02.336Z,72.27
2022-10-01T08:32:28.955Z,73.43
2022-10-01T08:34:57.578Z,72.64
2022-10-01T08:37:28.006Z,73.34
2022-10-01T08:39:55.278Z,72.28
2022-10-01T08:42:36.550Z,73.69
2022-10-01T08:45:09.817Z,73.22
2022-10-01T08:47:39.301Z,75.39
2022-10-01T08:50:13.228Z,72.99
2022-10-01T08:52:48.231Z,72.61
2022-10-01T08:55:19.520Z,72.49
2022-10-01T08:57:49.986Z,72.99
2022-10-01T09:00:18.133Z,73.74
2022-10-01T09:02:46.430Z,73.86
2022-10-01T09:05:21.105Z,72.80
2022-10-01T09:08:15.567Z,72.77
2022-10-01T09:10:53.783Z,72.87
2022-10-01T09:13:41.681Z,72.42
2022-10-01T09:16:31.370Z,72.38
2022-10-01T09:19:08.856Z,72.93
2022-10-01T09:21:43.428Z,73.65
2022-10-01T09:24:16.475Z,73.11
2022-10-01T09:26:47.484Z,72.86
2022-10-01T09:29:17.621Z,73.14
2022-10-01T09:31:47.188Z,72.84
2022-10-01T09:34:28.910Z,74.84
2022-10-01T09:37:05.545Z,73.74
2022-10-01T09:39:38.300Z,73.30
2022-10-01T09:42:04.917Z,73.72
2022-10-01T09:44:32.294Z,74.67
2022-10-01T09:46:58.868Z,74.55
2022-10-01T09:49:43.733Z,73.95
2022-10-01T09:52:15.085Z,73.93
2022-10-01T09:54:57.519Z,73.83
2022-10-01T09:57:32.042Z,73.49
2022-10-01T10:00:17.301Z,73.15
2022-10-01T10:02:49.273Z,73.08
2022-10-01T10:05:22.117Z,72.92
2022-10-01T10:07:54.275Z,72.42
2022-10-01T10:10:27.159Z,72.93
2022-10-01T10:13:04.751Z,72.53
2022-10-01T10:15:32.567Z,72.73
2022-10-01T10:18:08.507Z,72.59
2022-10-01T10:20:40.694Z,72.74
2022-10-01T10:23:19.078Z,72.89
2022-10-01T10:26:02.697Z,74.61
2022-10-01T10:28:43.320Z,75.14
2022-10-01T10:31:15.359Z,75.58
2022-10-01T10:33:51.124Z,75.61
2022-10-01T10:36:19.613Z,75.09
2022-10-01T10:38:49.633Z,75.56
2022-10-01T10:41:19.514Z,77.05
2022-10-01T10:43:48.807Z,77.64
2022-10-01T10:46:46.477Z,77.02
2022-10-01T10:49:29.953Z,76.92
2022-10-01T10:51:58.147Z,76.59
2022-10-01T10:54:29.229Z,75.69
2022-10-01T10:57:36.702Z,76.31
2022-10-01T11:00:24.678Z,76.49
2022-10-01T11:02:59.638Z,77.07
2022-10-01T11:05:30.013Z,76.88
2022-10-01T11:07:59.514Z,76.00
2022-10-01T11:10:44.333Z,76.41
2022-10-01T11:13:18.499Z,75.93
2022-10-01T11:15:51.707Z,76.44
2022-10-01T11:18:55.969Z,76.19
2022-10-01T11:21:28.481Z,75.90
2022-10-01T11:24:07.081Z,76.07
2022-10-01T11:26:45.795Z,75.22
2022-10-01T11:29:25.876Z,75.57
2022-10-01T11:31:52.522Z,75.12
2022-10-01T11:34:22.093Z,74.86
2022-10-01T11:36:59.071Z,75.48
2022-10-01T11:39:26.942Z,75.51
2022-10-01T11:42:02.700Z,73.85
2022-10-01T11:44:52.433Z,73.98
2022-10-01T11:47:36.306Z,74.74
2022-10-01T11:50:06.218Z,75.36
2022-10-01T11:52:43.032Z,74.51
2022-10-01T11:55:32.640Z,74.07
2022-10-01T11:58:23.519Z,73.91
2022-10-01T12:00:58.956Z,74.58
2022-10-01T12:03:30.275Z,74.07
2022-10-01T12:05:57.403Z,74.21
2022-10-01T12:08:27.998Z,73.70
2022-10-01T12:10:59.231Z,73.07
2022-10-01T12:13:35.644Z,73.70
2022-10-01T12:16:11.934Z,73.74
2022-10-01T12:18:52.435Z,74.59
2022-10-01T12:21:34.030Z,73.71
2022-10-01T12:24:05.189Z,73.38
2022-10-01T12:26:45.806Z,72.58
2022-10-01T12:29:27.968Z,72.32
2022-10-01T12:32:04.289Z,71.49
2022-10-01T12:35:27.882Z,71.13
2022-10-01T12:38:36.896Z,70.61
2022-10-01T12:41:22.555Z,70.36
2022-10-01T12:44:07.953Z,71.43
2022-10-01T12:47:06.631Z,70.96
2022-10-01T12:49:40.598Z,70.44
2022-10-01T12:52:20.142Z,71.40
2022-10-01T12:54:46.759Z,72.37
2022-10-01T12:57:26.246Z,70.42
2022-10-01T13:00:00.186Z,71.64
2022-10-01T13:02:56.829Z,70.10
2022-10-01T13:05:29.309Z,69.86
2022-10-01T13:08:15.847Z,69.20
2022-10-01T13:11:20.804Z,69.93
2022-10-01T13:13:51.513Z,68.46
2022-10-01T13:16:42.079Z,70.15
2022-10-01T13:19:30.755Z,70.19
2022-10-01T13:22:35.247Z,70.37
2022-10-01T13:25:32.944Z,68.42
2022-10-01T13:28:07.895Z,69.63
2022-10-01T13:30:56.552Z,69.42
2022-10-01T13:33:38.851Z,68.04
2022-10-01T13:36:07.729Z,69.36
2022-10-01T13:38:44.206Z,68.22
2022-10-01T13:41:24.590Z,67.98
2022-10-01T13:44:28.089Z,67.77
2022-10-01T13:47:09.988Z,68.87
2022-10-01T13:49:37.829Z,65.83
2022-10-01T13:52:04.271Z,68.87
2022-10-01T13:54:38.164Z,66.70
2022-10-01T13:57:09.547Z,68.02
2022-10-01T13:59:37.508Z,66.49
2022-10-01T14:02:29.759Z,65.08
2022-10-01T14:05:06.112Z,65.33
2022-10-01T14:07:36.156Z,63.32
2022-10-01T14:10:03.093Z,65.85
2022-10-01T14:12:50.406Z,64.88
2022-10-01T14:15:39.156Z,65.93
2022-10-01T14:18:11.884Z,66.19
2022-10-01T14:21:05.010Z,66.82
2022-10-01T14:24:06.686Z,66.59
2022-10-01T14:26:59.528Z,68.31
2022-10-01T14:29:52.186Z,67.43
2022-10-01T14:32:50.860Z,68.27
2022-10-01T14:35:24.450Z,66.75
2022-10-01T14:37:51.559Z,65.46
2022-10-01T14:40:22.025Z,64.25
2022-10-01T14:43:01.799Z,63.55
2022-10-01T14:45:29.506Z,65.76
2022-10-01T14:48:04.659Z,66.75
2022-10-01T14:50:34.200Z,65.95
2022-10-01T14:53:00.804Z,65.87
2022-10-01T14:55:27.690Z,65.90
2022-10-01T14:57:55.683Z,65.46
2022-10-01T15:00:29.801Z,64.71
2022-10-01T15:03:15.148Z,63.49
2022-10-01T15:05:42.408Z,64.00
2022-10-01T15:08:19.219Z,66.46
2022-10-01T15:11:07.033Z,64.27
2022-10-01T15:13:39.083Z,63.17
2022-10-01T15:16:11.623Z,65.15
2022-10-01T15:18:42.087Z,66.18
2022-10-01T15:21:16.583Z,65.86
2022-10-01T15:23:43.325Z,65.53
2022-10-01T15:26:14.060Z,65.01
2022-10-01T15:28:40.619Z,65.83
2022-10-01T15:31:07.792Z,65.17
2022-10-01T15:33:40.431Z,65.96
2022-10-01T15:36:16.313Z,64.19
2022-10-01T15:38:44.464Z,66.02
2022-10-01T15:41:31.473Z,64.75
2022-10-01T15:44:04.790Z,65.73
2022-10-01T15:46:36.218Z,66.61
2022-10-01T15:49:27.963Z,65.55
2022-10-01T15:52:25.833Z,66.43
2022-10-01T15:55:00.357Z,63.91
2022-10-01T15:57:35.395Z,65.75
2022-10-01T16:00:03.567Z,64.95
2022-10-01T16:02:34.967Z,65.21
2022-10-01T16:05:07.680Z,66.18
2022-10-01T16:07:37.329Z,66.07
2022-10-01T16:10:38.115Z,66.63
2022-10-01T16:13:42.622Z,66.50
2022-10-01T16:16:21.403Z,66.96
2022-10-01T16:18:56.941Z,66.90
2022-10-01T16:21:31.677Z,67.19
2022-10-01T16:24:04.922Z,65.93
2022-10-01T16:26:46.461Z,66.32
2022-10-01T16:29:15.995Z,67.07
2022-10-01T16:32:02.856Z,67.04
2022-10-01T16:34:39.000Z,66.86
2022-10-01T16:37:15.981Z,65.68
2022-10-01T16:40:04.579Z,67.85
2022-10-01T16:42:48.455Z,67.35
2022-10-01T16:45:18.575Z,66.99
2022-10-01T16:47:48.233Z,67.46
2022-10-01T16:50:23.288Z,67.46
2022-10-01T16:53:09.724Z,67.62
2022-10-01T16:55:42.831Z,68.06
2022-10-01T16:58:19.593Z,66.32
2022-10-01T17:00:51.316Z,67.20
2022-10-01T17:03:21.002Z,68.30
2022-10-01T17:05:54.266Z,68.23
2022-10-01T17:08:27.208Z,67.37
2022-10-01T17:11:12.451Z,68.82
2022-10-01T17:13:41.943Z,68.69
2022-10-01T17:16:24.537Z,69.05
2022-10-01T17:19:01.147Z,69.60
2022-10-01T17:21:33.942Z,68.95
2022-10-01T17:24:14.731Z,69.53
2022-10-01T17:26:45.691Z,69.60
2022-10-01T17:29:18.304Z,69.35
2022-10-01T17:31:54.403Z,69.87
2022-10-01T17:34:30.897Z,69.02
2022-10-01T17:37:06.684Z,69.06
2022-10-01T17:39:53.354Z,69.54
2022-10-01T17:42:30.337Z,68.94
2022-10-01T17:45:06.086Z,69.12
2022-10-01T17:47:48.895Z,69.69
2022-10-01T17:50:19.437Z,70.01
2022-10-01T17:52:52.485Z,70.66
2022-10-01T17:55:26.855Z,70.68
2022-10-01T17:57:56.131Z,69.05
2022-10-01T18:00:27.800Z,69.46
2022-10-01T18:02:56.205Z,69.94
2022-10-01T18:05:24.090Z,70.34
2022-10-01T18:07:55.805Z,70.66
2022-10-01T18:10:27.570Z,69.08
2022-10-01T18:13:04.955Z,70.06
2022-10-01T18:15:38.861Z,69.13
2022-10-01T18:19:51.493Z,70.41
2022-10-01T18:21:15.761Z,70.13
2022-10-01T18:23:49.772Z,70.73
2022-10-01T18:26:21.796Z,70.55
2022-10-01T18:28:56.052Z,70.35
2022-10-01T18:31:37.000Z,70.01
2022-10-01T18:34:21.031Z,70.30
2022-10-01T18:37:01.286Z,70.33
2022-10-01T18:39:45.326Z,71.19
2022-10-01T18:42:38.078Z,70.30
2022-10-01T18:45:24.515Z,70.68
2022-10-01T18:48:22.260Z,71.96
2022-10-01T18:54:45.289Z,72.32
2022-10-01T18:57:43.984Z,71.44
2022-10-01T19:00:34.221Z,71.61
2022-10-01T19:03:48.632Z,71.83
2022-10-01T19:06:51.012Z,73.46
2022-10-01T19:09:34.120Z,72.57
2022-10-01T19:12:24.563Z,72.52
2022-10-01T19:15:13.187Z,72.08
2022-10-01T19:18:00.204Z,72.20
2022-10-01T19:21:05.478Z,73.86
2022-10-01T19:23:41.944Z,72.24
2022-10-01T19:26:40.660Z,72.55
2022-10-01T19:29:38.892Z,72.31
2022-10-01T19:32:31.003Z,71.70
2022-10-01T19:35:26.336Z,71.49
2022-10-01T19:38:11.204Z,71.91
2022-10-01T19:41:05.793Z,72.07
2022-10-01T19:43:38.477Z,72.09
2022-10-01T19:46:23.830Z,72.42
2022-10-01T19:49:15.399Z,72.11
2022-10-01T19:52:01.656Z,72.17
2022-10-01T19:54:39.176Z,71.47
2022-10-01T19:57:33.273Z,70.93
2022-10-01T20:00:10.392Z,71.61
2022-10-01T20:02:57.357Z,70.97
2022-10-01T20:05:54.815Z,72.12
2022-10-01T20:09:05.186Z,71.16
2022-10-01T20:11:56.513Z,71.26
2022-10-01T20:15:10.236Z,70.80
2022-10-01T20:17:54.303Z,70.49
2022-10-01T20:20:27.186Z,70.54
2022-10-01T20:23:26.032Z,70.83
2022-10-01T20:26:15.248Z,70.48
2022-10-01T20:29:04.107Z,69.88
2022-10-01T20:31:55.148Z,70.17
2022-10-01T20:34:31.380Z,70.13
2022-10-01T20:37:10.714Z,70.35
2022-10-01T20:39:50.972Z,70.60
2022-10-01T20:42:37.326Z,70.47
2022-10-01T20:45:06.762Z,70.55
2022-10-01T20:47:42.633Z,70.20
2022-10-01T20:50:37.993Z,70.31
2022-10-01T20:53:20.335Z,70.23
2022-10-01T20:56:19.726Z,70.24
2022-10-01T20:58:56.490Z,70.47
2022-10-01T21:01:30.492Z,70.41
2022-10-01T21:04:10.485Z,70.39
2022-10-01T21:06:45.272Z,70.34
2022-10-01T21:09:25.235Z,70.35
2022-10-01T21:12:24.280Z,70.53
2022-10-01T21:15:08.841Z,70.38
2022-10-01T21:18:26.731Z,70.67
2022-10-01T21:21:38.260Z,70.60
2022-10-01T21:24:44.480Z,70.75
2022-10-01T21:27:32.841Z,70.65
2022-10-01T21:30:14.972Z,70.73
2022-10-01T21:33:02.595Z,70.50
2022-10-01T21:35:35.848Z,70.94
2022-10-01T21:38:28.979Z,70.34
2022-10-01T21:41:38.496Z,70.52
2022-10-01T21:44:35.881Z,70.42
2022-10-01T21:47:34.982Z,70.23
2022-10-01T21:50:10.828Z,70.80
2022-10-01T21:53:00.489Z,71.14
2022-10-01T21:55:33.172Z,70.54
2022-10-01T21:58:30.018Z,70.81
2022-10-01T22:01:15.464Z,71.04
2022-10-01T22:04:41.734Z,70.91
2022-10-01T22:07:40.628Z,71.09
2022-10-01T22:10:16.687Z,71.24
2022-10-01T22:12:46.807Z,71.37
2022-10-01T22:15:55.055Z,71.50
2022-10-01T22:18:33.482Z,71.02
2022-10-01T22:21:18.096Z,71.42
2022-10-01T22:24:04.224Z,71.39
2022-10-01T22:26:40.764Z,71.56
2022-10-01T22:29:15.694Z,71.34
2022-10-01T22:31:46.519Z,71.52
2022-10-01T22:34:20.529Z,71.57
2022-10-01T22:37:00.183Z,71.30
2022-10-01T22:39:38.009Z,71.25
2022-10-01T22:42:17.325Z,71.25
2022-10-01T22:44:48.249Z,71.24
2022-10-01T22:48:03.128Z,71.11
2022-10-01T22:51:11.843Z,70.90
2022-10-01T22:54:03.988Z,70.96
2022-10-01T22:56:47.364Z,71.41
2022-10-01T22:59:46.315Z,71.17
2022-10-01T23:02:41.371Z,71.20
2022-10-01T23:05:15.880Z,71.01
2022-10-01T23:08:05.254Z,71.33
2022-10-01T23:10:33.626Z,70.94
2022-10-01T23:13:05.115Z,70.85
2022-10-01T23:15:46.496Z,71.14
2022-10-01T23:18:34.372Z,71.13
2022-10-01T23:21:26.166Z,71.50
2022-10-01T23:24:21.923Z,71.19
2022-10-01T23:26:57.247Z,71.80
2022-10-01T23:29:42.945Z,71.75
2022-10-01T23:32:31.909Z,71.77
2022-10-01T23:35:13.065Z,71.97
2022-10-01T23:38:07.569Z,71.81
2022-10-01T23:40:38.618Z,71.80
2022-10-01T23:43:33.127Z,71.99
2022-10-01T23:46:06.946Z,72.17
2022-10-01T23:48:57.673Z,72.07
2022-10-01T23:51:27.449Z,72.04
2022-10-01T23:54:26.900Z,72.03
2022-10-01T23:57:02.986Z,72.44
2022-10-01T23:59:39.607Z,72.60
